createdAt,value
2022-11-12T00:02:25.198Z,14.69
2022-11-12T00:05:15.950Z,13.70
2022-11-12T00:08:07.039Z,12.94
2022-11-12T00:10:57.783Z,12.38
2022-11-12T00:13:48.164Z,12.38
2022-11-12T00:16:38.410Z,13.72
2022-11-12T00:19:31.421Z,14.75
2022-11-12T00:22:22.096Z,15.36
2022-11-12T00:25:14.245Z,15.39
2022-11-12T00:28:06.314Z,14.39
2022-11-12T00:30:56.780Z,13.45
2022-11-12T00:33:47.151Z,12.74
2022-11-12T00:36:37.592Z,12.22
2022-11-12T00:39:27.744Z,12.28
2022-11-12T00:42:17.868Z,13.60
2022-11-12T00:45:09.783Z,14.60
2022-11-12T00:48:00.498Z,15.10
2022-11-12T00:50:50.995Z,15.18
2022-11-12T00:53:41.348Z,14.27
2022-11-12T00:56:35.417Z,13.41
2022-11-12T00:59:26.158Z,12.74
2022-11-12T01:02:16.407Z,12.25
2022-11-12T01:05:07.649Z,12.27
2022-11-12T01:07:58.088Z,13.57
2022-11-12T01:10:48.274Z,14.49
2022-11-12T01:13:44.199Z,15.04
2022-11-12T01:16:38.593Z,15.06
2022-11-12T01:19:28.959Z,14.09
2022-11-12T01:22:19.857Z,13.17
2022-11-12T01:25:10.726Z,12.49
2022-11-12T01:28:01.207Z,11.97
2022-11-12T01:30:51.367Z,12.04
2022-11-12T01:33:42.343Z,13.31
2022-11-12T01:36:35.286Z,14.21
2022-11-12T01:39:25.661Z,14.82
2022-11-12T01:42:16.112Z,15.13
2022-11-12T01:45:16.730Z,15.04
2022-11-12T01:48:07.064Z,13.99
2022-11-12T01:50:58.365Z,13.09
2022-11-12T01:53:55.015Z,12.38
2022-11-12T01:56:45.978Z,12.33
2022-11-12T01:59:43.255Z,13.52
2022-11-12T02:02:34.077Z,14.27
2022-11-12T02:05:26.112Z,14.45
2022-11-12T02:08:17.002Z,14.63
2022-11-12T02:11:16.707Z,14.81
2022-11-12T02:14:07.395Z,14.65
2022-11-12T02:16:57.531Z,13.73
2022-11-12T02:19:49.505Z,12.87
2022-11-12T02:22:39.693Z,12.22
2022-11-12T02:25:30.102Z,12.06
2022-11-12T02:28:20.680Z,13.02
2022-11-12T02:31:11.214Z,13.94
2022-11-12T02:34:02.533Z,14.55
2022-11-12T02:36:53.156Z,14.95
2022-11-12T02:39:43.596Z,15.17
2022-11-12T02:42:33.855Z,15.09
2022-11-12T02:45:24.819Z,14.17
2022-11-12T02:48:19.169Z,13.31
2022-11-12T02:51:15.243Z,12.62
2022-11-12T02:54:05.499Z,12.07
2022-11-12T02:56:55.853Z,12.07
2022-11-12T02:59:46.377Z,13.32
2022-11-12T03:02:42.702Z,14.32
2022-11-12T03:05:35.400Z,14.82
2022-11-12T03:08:27.044Z,15.15
2022-11-12T03:11:19.118Z,15.51
2022-11-12T03:14:09.672Z,15.56
2022-11-12T03:17:00.126Z,14.55
2022-11-12T03:19:50.913Z,13.60
2022-11-12T03:22:41.642Z,12.92
2022-11-12T03:25:32.711Z,12.44
2022-11-12T03:28:23.506Z,12.39
2022-11-12T03:31:14.206Z,13.66
2022-11-12T03:34:04.249Z,14.56
2022-11-12T03:36:54.557Z,15.07
2022-11-12T03:39:44.974Z,15.38
2022-11-12T03:42:35.448Z,15.29
2022-11-12T03:45:28.037Z,14.26
2022-11-12T03:48:18.464Z,13.28
2022-11-12T03:51:09.109Z,12.55
2022-11-12T03:53:59.956Z,12.36
2022-11-12T03:56:50.045Z,13.47
2022-11-12T03:59:40.520Z,14.42
2022-11-12T04:02:31.034Z,15.03
2022-11-12T04:05:38.984Z,15.51
2022-11-12T04:08:38.122Z,15.47
2022-11-12T04:11:28.831Z,14.28
2022-11-12T04:14:19.065Z,13.27
2022-11-12T04:17:27.079Z,12.53
2022-11-12T04:20:35.193Z,12.38
2022-11-12T04:23:25.771Z,13.46
2022-11-12T04:26:25.413Z,14.33
2022-11-12T04:29:37.376Z,14.83
2022-11-12T04:32:28.843Z,15.17
2022-11-12T04:35:20.153Z,15.42
2022-11-12T04:38:10.815Z,15.37
2022-11-12T04:41:18.687Z,14.34
2022-11-12T04:44:30.824Z,13.25
2022-11-12T04:47:21.105Z,12.48
2022-11-12T04:50:17.108Z,12.42
2022-11-12T04:53:07.549Z,13.68
2022-11-12T04:55:59.931Z,14.65
2022-11-12T04:58:50.664Z,15.17
2022-11-12T05:01:40.876Z,15.52
2022-11-12T05:04:31.904Z,15.38
2022-11-12T05:07:22.213Z,14.31
2022-11-12T05:10:12.931Z,13.33
2022-11-12T05:13:03.452Z,12.60
2022-11-12T05:15:53.626Z,12.41
2022-11-12T05:18:44.085Z,13.40
2022-11-12T05:21:51.877Z,14.21
2022-11-12T05:24:44.466Z,14.87
2022-11-12T05:27:35.841Z,15.34
2022-11-12T05:30:26.320Z,15.74
2022-11-12T05:33:16.639Z,15.65
2022-11-12T05:36:07.863Z,14.54
2022-11-12T05:38:58.511Z,13.53
2022-11-12T05:42:11.466Z,12.80
2022-11-12T05:44:59.045Z,12.17
2022-11-12T05:47:50.290Z,12.12
2022-11-12T05:51:06.133Z,13.35
2022-11-12T05:53:51.626Z,14.38
2022-11-12T05:56:42.439Z,14.87
2022-11-12T05:59:33.462Z,15.36
2022-11-12T06:02:24.956Z,15.82
2022-11-12T06:05:15.688Z,15.82
2022-11-12T06:08:07.486Z,14.80
2022-11-12T06:10:58.139Z,13.79
2022-11-12T06:13:48.545Z,13.05
2022-11-12T06:16:41.280Z,12.49
2022-11-12T06:19:31.996Z,12.45
2022-11-12T06:22:22.319Z,13.55
2022-11-12T06:25:13.175Z,14.41
2022-11-12T06:28:03.927Z,15.07
2022-11-12T06:30:54.155Z,15.42
2022-11-12T06:33:44.873Z,15.70
2022-11-12T06:36:35.262Z,15.65
2022-11-12T06:39:26.290Z,14.64
2022-11-12T06:42:16.900Z,13.72
2022-11-12T06:45:09.083Z,13.04
2022-11-12T06:48:01.643Z,12.50
2022-11-12T06:50:52.225Z,12.47
2022-11-12T06:53:42.685Z,13.70
2022-11-12T06:56:33.245Z,14.75
2022-11-12T06:59:23.730Z,15.34
2022-11-12T07:02:15.313Z,15.78
2022-11-12T07:05:07.385Z,15.75
2022-11-12T07:07:58.498Z,14.73
2022-11-12T07:10:49.016Z,13.78
2022-11-12T07:13:39.840Z,13.09
2022-11-12T07:16:30.529Z,12.56
2022-11-12T07:19:21.324Z,12.58
2022-11-12T07:22:11.354Z,13.83
2022-11-12T07:25:01.781Z,14.90
2022-11-12T07:27:55.517Z,15.59
2022-11-12T07:30:46.263Z,15.94
2022-11-12T07:33:37.171Z,15.89
2022-11-12T07:36:27.566Z,14.93
2022-11-12T07:39:17.958Z,14.03
2022-11-12T07:42:09.034Z,13.34
2022-11-12T07:44:59.495Z,12.81
2022-11-12T07:47:50.189Z,12.83
2022-11-12T07:50:41.058Z,14.16
2022-11-12T07:53:31.827Z,15.22
2022-11-12T07:56:23.891Z,15.83
2022-11-12T07:59:14.117Z,16.26
2022-11-12T08:02:04.823Z,16.21
2022-11-12T08:04:55.256Z,15.21
2022-11-12T08:07:45.908Z,14.32
2022-11-12T08:10:36.116Z,13.69
2022-11-12T08:13:27.186Z,13.23
2022-11-12T08:16:17.940Z,12.91
2022-11-12T08:19:08.875Z,13.10
2022-11-12T08:21:59.559Z,14.54
2022-11-12T08:24:50.053Z,15.65
2022-11-12T08:27:40.593Z,16.26
2022-11-12T08:30:31.755Z,16.27
2022-11-12T08:33:22.171Z,15.23
2022-11-12T08:36:14.960Z,14.31
2022-11-12T08:39:05.696Z,13.69
2022-11-12T08:41:56.624Z,13.36
2022-11-12T08:44:47.113Z,13.14
2022-11-12T08:47:37.960Z,13.45
2022-11-12T08:50:28.413Z,14.97
2022-11-12T08:53:18.421Z,16.08
2022-11-12T08:56:09.741Z,16.73
2022-11-12T08:59:01.788Z,16.82
2022-11-12T09:01:55.503Z,15.89
2022-11-12T09:04:46.693Z,15.10
2022-11-12T09:07:49.897Z,14.55
2022-11-12T09:10:42.677Z,14.22
2022-11-12T09:13:33.574Z,14.00
2022-11-12T09:16:24.757Z,13.80
2022-11-12T09:19:15.401Z,14.01
2022-11-12T09:22:06.240Z,15.30
2022-11-12T09:24:56.901Z,16.53
2022-11-12T09:27:48.707Z,17.00
2022-11-12T09:30:43.072Z,16.32
2022-11-12T09:33:35.355Z,15.67
2022-11-12T09:36:25.651Z,15.20
2022-11-12T09:39:16.201Z,14.78
2022-11-12T09:42:15.204Z,14.49
2022-11-12T09:45:14.424Z,14.15
2022-11-12T09:48:13.836Z,13.84
2022-11-12T09:51:11.860Z,13.61
2022-11-12T09:54:08.111Z,13.53
2022-11-12T09:56:58.839Z,14.58
2022-11-12T09:59:50.181Z,15.85
2022-11-12T10:02:50.168Z,16.74
2022-11-12T10:05:48.447Z,17.05
2022-11-12T10:08:47.307Z,16.32
2022-11-12T10:12:17.048Z,15.63
2022-11-12T10:15:46.727Z,15.04
2022-11-12T10:18:48.603Z,14.65
2022-11-12T10:21:47.675Z,14.40
2022-11-12T10:24:41.302Z,14.16
2022-11-12T10:27:44.382Z,13.87
2022-11-12T10:30:36.789Z,13.60
2022-11-12T10:33:31.247Z,13.44
2022-11-12T10:36:30.265Z,13.30
2022-11-12T10:39:42.243Z,13.21
2022-11-12T10:42:34.210Z,13.15
2022-11-12T10:45:25.941Z,14.19
2022-11-12T10:48:34.166Z,15.52
2022-11-12T10:51:30.109Z,16.10
2022-11-12T10:54:30.815Z,15.47
2022-11-12T10:57:26.677Z,14.88
2022-11-12T11:00:23.976Z,14.49
2022-11-12T11:03:23.199Z,14.22
2022-11-12T11:06:26.927Z,14.04
2022-11-12T11:09:21.695Z,13.95
2022-11-12T11:12:26.504Z,13.89
2022-11-12T11:15:24.232Z,13.87
2022-11-12T11:18:15.670Z,13.88
2022-11-12T11:21:25.208Z,13.89
2022-11-12T11:24:24.998Z,13.89
2022-11-12T11:27:31.265Z,13.89
2022-11-12T11:30:23.414Z,13.91
2022-11-12T11:33:25.422Z,13.92
2022-11-12T11:36:24.795Z,13.93
2022-11-12T11:39:23.477Z,13.91
2022-11-12T11:42:30.830Z,13.89
2022-11-12T11:45:28.763Z,13.84
2022-11-12T11:48:31.769Z,13.84
2022-11-12T11:51:42.095Z,13.87
2022-11-12T11:55:01.219Z,15.06
2022-11-12T11:58:04.197Z,16.40
2022-11-12T12:01:05.831Z,17.03
2022-11-12T12:04:17.563Z,16.31
2022-11-12T12:07:18.762Z,15.60
2022-11-12T12:10:22.984Z,15.21
2022-11-12T12:13:27.231Z,14.90
2022-11-12T12:16:35.350Z,14.71
2022-11-12T12:19:48.727Z,14.58
2022-11-12T12:22:46.379Z,14.51
2022-11-12T12:25:41.482Z,14.44
2022-11-12T12:28:42.095Z,14.35
2022-11-12T12:31:38.348Z,14.27
2022-11-12T12:34:33.496Z,14.19
2022-11-12T12:37:31.843Z,14.13
2022-11-12T12:40:28.588Z,14.08
2022-11-12T12:43:28.098Z,14.01
2022-11-12T12:46:22.403Z,13.96
2022-11-12T12:49:18.644Z,13.92
2022-11-12T12:52:12.789Z,13.90
2022-11-12T12:55:03.457Z,13.89
2022-11-12T12:58:01.371Z,13.90
2022-11-12T13:00:54.941Z,13.91
2022-11-12T13:03:52.868Z,13.88
2022-11-12T13:06:55.156Z,13.85
2022-11-12T13:09:45.966Z,13.80
2022-11-12T13:13:06.848Z,13.75
2022-11-12T13:15:58.783Z,13.70
2022-11-12T13:19:27.642Z,13.66
2022-11-12T13:22:53.959Z,14.23
2022-11-12T13:25:44.168Z,15.79
2022-11-12T13:28:34.669Z,16.67
2022-11-12T13:31:30.646Z,16.88
2022-11-12T13:34:32.439Z,16.14
2022-11-12T13:37:24.106Z,15.41
2022-11-12T13:40:17.470Z,14.92
2022-11-12T13:43:12.899Z,14.52
2022-11-12T13:46:21.129Z,14.22
2022-11-12T13:49:16.210Z,13.98
2022-11-12T13:52:07.868Z,13.79
2022-11-12T13:55:07.724Z,13.61
2022-11-12T13:57:58.465Z,13.44
2022-11-12T14:00:55.665Z,13.29
2022-11-12T14:03:49.528Z,13.17
2022-11-12T14:06:43.353Z,13.47
2022-11-12T14:09:59.385Z,14.85
2022-11-12T14:13:07.695Z,15.97
2022-11-12T14:16:18.849Z,16.26
2022-11-12T14:19:27.537Z,15.36
2022-11-12T14:22:20.842Z,14.57
2022-11-12T14:25:19.162Z,14.01
2022-11-12T14:28:21.189Z,13.53
2022-11-12T14:31:16.475Z,13.13
2022-11-12T14:34:31.762Z,12.80
2022-11-12T14:37:41.631Z,13.01
2022-11-12T14:40:37.262Z,14.30
2022-11-12T14:43:37.767Z,15.16
2022-11-12T14:46:31.175Z,15.63
2022-11-12T14:49:37.324Z,15.57
2022-11-12T14:52:34.184Z,14.60
2022-11-12T14:55:27.855Z,13.78
2022-11-12T14:58:20.149Z,13.16
2022-11-12T15:04:43.228Z,12.80
2022-11-12T15:07:33.671Z,13.94
2022-11-12T15:10:36.582Z,14.57
2022-11-12T15:13:29.417Z,15.13
2022-11-12T15:16:26.916Z,15.16
2022-11-12T15:19:22.441Z,14.14
2022-11-12T15:22:22.775Z,13.19
2022-11-12T15:25:21.022Z,12.45
2022-11-12T15:28:24.398Z,11.87
2022-11-12T15:31:22.414Z,11.88
2022-11-12T15:34:34.147Z,13.03
2022-11-12T15:37:31.594Z,13.98
2022-11-12T15:40:23.198Z,14.33
2022-11-12T15:43:18.840Z,14.45
2022-11-12T15:46:16.014Z,14.29
2022-11-12T15:49:14.214Z,13.32
2022-11-12T15:52:05.092Z,12.43
2022-11-12T15:54:55.487Z,11.78
2022-11-12T15:57:48.048Z,11.25
2022-11-12T16:00:39.905Z,11.14
2022-11-12T16:03:32.182Z,12.09
2022-11-12T16:06:22.402Z,12.84
2022-11-12T16:09:12.822Z,13.40
2022-11-12T16:12:03.515Z,13.74
2022-11-12T16:14:53.806Z,14.04
2022-11-12T16:17:44.396Z,13.81
2022-11-12T16:20:36.205Z,12.81
2022-11-12T16:23:26.747Z,11.92
2022-11-12T16:26:22.593Z,11.23
2022-11-12T16:29:15.289Z,10.65
2022-11-12T16:32:06.296Z,10.56
2022-11-12T16:35:00.935Z,11.51
2022-11-12T16:37:53.824Z,12.20
2022-11-12T16:40:45.357Z,12.57
2022-11-12T16:43:35.974Z,12.95
2022-11-12T16:46:30.111Z,13.32
2022-11-12T16:49:21.591Z,13.71
2022-11-12T16:52:12.949Z,13.86
2022-11-12T16:55:04.746Z,13.99
2022-11-12T16:57:55.401Z,13.73
2022-11-12T17:00:47.397Z,12.74
2022-11-12T17:03:37.782Z,11.87
2022-11-12T17:06:36.699Z,11.17
2022-11-12T17:09:27.708Z,11.00
2022-11-12T17:12:18.065Z,11.97
2022-11-12T17:15:10.892Z,12.69
2022-11-12T17:18:01.471Z,13.08
2022-11-12T17:20:51.699Z,13.25
2022-11-12T17:23:42.730Z,13.39
2022-11-12T17:26:33.041Z,13.50
2022-11-12T17:29:23.812Z,13.57
2022-11-12T17:32:13.987Z,13.37
2022-11-12T17:35:04.289Z,12.19
2022-11-12T17:37:54.759Z,11.46
2022-11-12T17:40:44.830Z,12.06
2022-11-12T17:43:35.396Z,12.62
2022-11-12T17:46:26.895Z,12.91
2022-11-12T17:49:18.017Z,13.12
2022-11-12T17:52:08.480Z,13.28
2022-11-12T17:54:58.681Z,13.42
2022-11-12T17:57:51.215Z,13.54
2022-11-12T18:00:41.593Z,13.65
2022-11-12T18:03:31.895Z,13.70
2022-11-12T18:06:23.962Z,13.85
2022-11-12T18:09:16.788Z,13.97
2022-11-12T18:12:08.132Z,13.94
2022-11-12T18:14:58.772Z,14.08
2022-11-12T18:17:49.189Z,14.19
2022-11-12T18:20:41.109Z,13.81
2022-11-12T18:23:32.022Z,12.59
2022-11-12T18:26:22.806Z,11.46
2022-11-12T18:29:13.652Z,10.91
2022-11-12T18:32:04.051Z,11.49
2022-11-12T18:34:54.548Z,11.99
2022-11-12T18:37:45.832Z,12.28
2022-11-12T18:40:36.745Z,12.32
2022-11-12T18:43:27.410Z,12.55
2022-11-12T18:46:17.687Z,12.62
2022-11-12T18:49:08.180Z,12.59
2022-11-12T18:52:01.364Z,12.71
2022-11-12T18:54:51.580Z,12.92
2022-11-12T18:57:42.216Z,13.07
2022-11-12T19:00:33.055Z,13.01
2022-11-12T19:03:23.192Z,12.90
2022-11-12T19:06:14.920Z,13.07
2022-11-12T19:09:05.994Z,13.28
2022-11-12T19:11:56.239Z,13.44
2022-11-12T19:14:46.721Z,13.63
2022-11-12T19:17:36.879Z,13.75
2022-11-12T19:20:27.413Z,13.71
2022-11-12T19:23:17.890Z,13.50
2022-11-12T19:26:11.610Z,13.40
2022-11-12T19:29:02.624Z,13.46
2022-11-12T19:31:53.361Z,13.51
2022-11-12T19:34:43.660Z,13.60
2022-11-12T19:37:34.817Z,13.69
2022-11-12T19:40:25.359Z,13.58
2022-11-12T19:43:15.866Z,12.54
2022-11-12T19:46:06.293Z,11.33
2022-11-12T19:48:56.594Z,10.81
2022-11-12T19:51:46.742Z,11.51
2022-11-12T19:54:36.863Z,11.85
2022-11-12T19:57:27.872Z,11.90
2022-11-12T20:00:19.567Z,11.89
2022-11-12T20:03:09.953Z,11.89
2022-11-12T20:06:04.015Z,12.02
2022-11-12T20:08:54.888Z,12.69
2022-11-12T20:11:45.063Z,12.89
2022-11-12T20:14:35.477Z,13.12
2022-11-12T20:17:25.767Z,13.23
2022-11-12T20:20:16.972Z,13.46
2022-11-12T20:23:07.242Z,13.67
2022-11-12T20:26:05.824Z,13.92
2022-11-12T20:28:56.421Z,14.05
2022-11-12T20:31:47.379Z,14.16
2022-11-12T20:34:37.648Z,14.32
2022-11-12T20:37:27.942Z,13.96
2022-11-12T20:40:18.733Z,12.88
2022-11-12T20:43:08.764Z,11.94
2022-11-12T20:45:59.618Z,11.23
2022-11-12T20:48:49.929Z,11.06
2022-11-12T20:51:40.482Z,12.19
2022-11-12T20:54:30.737Z,12.90
2022-11-12T20:57:21.290Z,13.22
2022-11-12T21:00:15.324Z,13.42
2022-11-12T21:03:07.438Z,13.63
2022-11-12T21:06:01.756Z,13.68
2022-11-12T21:08:53.495Z,13.87
2022-11-12T21:11:43.902Z,13.96
2022-11-12T21:14:34.109Z,13.99
2022-11-12T21:17:24.562Z,13.97
2022-11-12T21:20:16.029Z,13.86
2022-11-12T21:23:09.059Z,13.90
2022-11-12T21:26:05.530Z,14.03
2022-11-12T21:28:56.545Z,13.85
2022-11-12T21:31:46.983Z,12.87
2022-11-12T21:34:37.213Z,11.98
2022-11-12T21:37:27.705Z,11.29
2022-11-12T21:40:19.120Z,11.14
2022-11-12T21:43:09.871Z,12.30
2022-11-12T21:46:00.739Z,13.31
2022-11-12T21:48:55.093Z,13.82
2022-11-12T21:51:45.815Z,14.14
2022-11-12T21:54:36.506Z,14.24
2022-11-12T21:57:27.027Z,14.40
2022-11-12T22:00:41.002Z,14.13
2022-11-12T22:03:32.497Z,12.80
2022-11-12T22:06:25.116Z,11.76
2022-11-12T22:09:15.876Z,10.96
2022-11-12T22:12:06.718Z,10.84
2022-11-12T22:14:59.524Z,12.12
2022-11-12T22:17:49.655Z,13.13
2022-11-12T22:20:40.297Z,13.76
2022-11-12T22:23:32.971Z,14.21
2022-11-12T22:26:25.687Z,14.62
2022-11-12T22:29:15.867Z,14.50
2022-11-12T22:32:07.061Z,13.33
2022-11-12T22:34:57.629Z,12.25
2022-11-12T22:37:48.053Z,11.48
2022-11-12T22:40:38.641Z,11.33
2022-11-12T22:43:28.796Z,12.56
2022-11-12T22:46:21.079Z,13.53
2022-11-12T22:49:11.182Z,14.10
2022-11-12T22:52:01.705Z,14.44
2022-11-12T22:54:51.845Z,14.31
2022-11-12T22:57:42.194Z,13.13
2022-11-12T23:00:33.836Z,12.04
2022-11-12T23:03:24.071Z,11.23
2022-11-12T23:06:14.300Z,11.06
2022-11-12T23:09:04.958Z,12.18
2022-11-12T23:11:55.121Z,13.16
2022-11-12T23:14:45.451Z,13.80
2022-11-12T23:17:35.824Z,14.22
2022-11-12T23:20:26.113Z,14.52
2022-11-12T23:23:16.190Z,14.41
2022-11-12T23:26:09.520Z,13.23
2022-11-12T23:29:00.229Z,12.19
2022-11-12T23:31:50.906Z,11.41
2022-11-12T23:34:41.201Z,11.25
2022-11-12T23:37:31.719Z,12.44
2022-11-12T23:40:22.119Z,13.34
2022-11-12T23:43:12.316Z,13.91
2022-11-12T23:46:02.675Z,14.20
2022-11-12T23:48:53.282Z,14.38
2022-11-12T23:51:43.632Z,14.20
2022-11-12T23:54:33.675Z,13.05
2022-11-12T23:57:24.229Z,12.00
